Air Resources Laboratory banner image
Air Resources Laboratory web site National Oceanic and Atmospheric Administration (NOAA)

id metar


KBOI 180653Z 17004KT 10SM OVC041 02/M04 A3023 RMK AO2 SLP254 T00171039
 400331078=
KBYI 180653Z AUTO 00000KT 10SM OVC041 M01/M05 A3023 RMK AO2 SLP256 T10111050
 400281089=
KCOE 180656Z AUTO 18004KT 10SM OVC018 02/01 A2990 RMK AO2 SLP163 T00220006
 FZRANO=
KEUL 180656Z AUTO 13005KT 10SM OVC043 01/M03 A3025 RMK AO2 SLP263 T00111033
 400281072 FZRANO=
KIDA 180653Z AUTO 00000KT 8SM SCT041 BKN080 M07/M08 A3023 RMK AO2 SLP284
 T10671078 410501078=
KJER 180653Z AUTO 11003KT 10SM OVC040 M01/M06 A3024 RMK AO2 SLP266 T10111061
 400111078=
KLLJ 180655Z AUTO 35003KT 10SM OVC048 M04/M09 A3011 RMK AO2 SLP232 T10391089
 410331156=
KLWS 180656Z AUTO 19015G22KT 10SM OVC090 05/00 A2996 RMK AO2 SLP158 T00500000=
KMLP 180653Z AUTO VRB06KT 1/2SM SN FZFG VV003 M02/M04 A2981 RMK AO2 SLP128
 P0005 T10171039 TSNO=
KMUO 180658Z AUTO 09011KT 10SM OVC042 00/M02 A3024 RMK AO2 SLP263 T00041018
 400361083 $=
KMYL 180651Z AUTO 05003KT 10SM OVC008 M03/M06 A3014 RMK AO2 SLP250 T10331056
 410331167 $=
KP69 180652Z AUTO 31003KT M01/M01 A3010 RMK AO1 SLP217 P0001 T10061011 $=
KPIH 180653Z AUTO 20010KT 10SM OVC044 M01/M06 A3023 RMK AO2 SLP266 T10111061
 410111078=
KRXE 180653Z AUTO 00000KT 10SM BKN045 OVC060 M06/M07 A3021 RMK AO2 SLP283
 T10611072 410561083=
KSMN 180656Z AUTO 00000KT 10SM OVC055 M05/M09 A3013 RMK AO2 UPB46E56 SLP257
 P0000 T10501089 410441156 FZRANO=
KSNT 180651Z AUTO 00000KT M07/M09 A3012 RMK AO1 SLP234 T10671094 410391206=
KSUN 180655Z AUTO 00000KT 10SM BKN100 M06/M07 A3022 RMK AO2=
KTWF 180653Z AUTO 18004KT 10SM OVC040 M03/M05 A3023 RMK AO2 SLP248 T10331050
 400221083 $=